Main page
METAR-TAF:

METAR-TAF

Airports :

Cerklje ob Krki Airport

Cerklje ob Krki, Slovenia

latitude: 45-53-59N, longitude: 15-30-55E, elevation: 157 m

Current weather observation

The report was made 35 minutes ago, at 18:30 UTC
Wind 2 kt from the South
Temperature 4°C
Humidity 93%
Pressure 1018 hPa
Visibility: 8000 m
Overcast at a height of 1500 ft

METAR: LJCE 211830Z 18002KT 8000 OVC015 04/03 Q1018 RMK WHT

Time: 20:05 (19:05 UTC)

Forecast

The report was made 2 hours and 5 minutes ago, at 17:00 UTC
Forecast valid from 21 at 18 UTC to 22 at 03 UTC
Wind 3 kt from the West/Southwest
Visibility: 7000 m
Few clouds at a height of 1000 ft
Overcast at a height of 1500 ft
Temporary
from 21 at 20 UTC to 22 at 03 UTC
Visibility: 3500 m
Overcast at a height of 700 ft
mist

TAF: LJCE 211700Z 2118/2203 25003KT 7000 FEW010 OVC015 TEMPO 2120/2203 3500 BR OVC007

Weather observations and forecasts of more than 4000 airports (METAR and TAF reports).

The available stations are represented by yellow and red dots on the map.

Hover mouse over dot to see the name of the station.

Then click to see weather observations and forecasts.

To change the map : click on the green buttons with a black cross to zoom in, on the green button with a dash to zoom out, or on the green arrows for adjacent maps.


METAR-TAF: